バンコク/スワンナプーム の空港の天気 - METARとTAF

スワンナプーム国際空港 ( VTBS / BKK ) - タイ サムットプラーカーン県 (バンコク近郊)
飛行場実況気象(Metar)
観測時間02/18 06:00 ICT (02/17 23:00 UTC)
風向・風速南 4m/s
視程9000m
天気現象
全天の4割程度の雲 雲底高度 610m
全天の8割程度の雲 雲底高度 2440m
気温26℃
湿度84%
気圧1011hPa
METARVTBS 172300Z 17008KT 9000 SCT020 BKN080 26/23 Q1011 NOSIG
過去の天気等 Google飛行場航空写真 Wunderground天気予報

過去48時間のMETAR

飛行場予報(TAF)
発表時間: 2/18 00:00 ICT (2/17 17:00 UTC)
予報対象時間: 18日1時 ICT ~ 19日7時 ICT
風向・風速南南西 4m/s
視程10km以上
少しの雲 雲底高度 610m
TAF VTBS 171700Z 1718/1824 20008KT 9999 FEW020